Terminal Aerodrome Forecast
Issued by NWS

Home | Current Version | Previous Version | Text Only | Print | Product List | Glossary On
Versions: 1 2 3 4 5 6 7 8 9 10 11 12 13 14 15 16 17 18 19 20 21 22 23 24
320
FTUS43 KGRR 301446 AAB
TAFAZO
TAF AMD
KAZO 301446Z 3015/0112 05007KT 4SM BR VCSH OVC006
     FM301600 05012KT P6SM OVC009
     FM302100 05011KT 2SM -RA BR OVC005
     FM010300 06011KT 4SM -DZ BR OVC002
     FM010700 06010KT 1/4SM -DZ FG VV001=

USA.gov is the U.S. government's official web portal to all federal, state and local government web resources and services.